createdAt,value
2023-04-12T00:01:06.202Z,99512.66
2023-04-12T00:03:37.439Z,99515.34
2023-04-12T00:06:07.168Z,99504.69
2023-04-12T00:08:35.152Z,99514.19
2023-04-12T00:11:03.728Z,99524.03
2023-04-12T00:13:31.334Z,99507.25
2023-04-12T00:15:58.908Z,99501.03
2023-04-12T00:18:26.386Z,99496.47
2023-04-12T00:20:55.542Z,99498.72
2023-04-12T00:23:22.696Z,99513.38
2023-04-12T00:25:49.926Z,99508.38
2023-04-12T00:28:17.199Z,99503.19
2023-04-12T00:30:45.813Z,99491.78
2023-04-12T00:33:13.028Z,99491.66
2023-04-12T00:35:40.686Z,99483.88
2023-04-12T00:38:10.601Z,99483.81
2023-04-12T00:40:44.909Z,99476.63
2023-04-12T00:43:15.637Z,99478.22
2023-04-12T00:45:42.936Z,99486.44
2023-04-12T00:48:10.893Z,99483.53
2023-04-12T00:50:38.167Z,99479.00
2023-04-12T00:53:05.528Z,99480.31
2023-04-12T00:55:32.719Z,99478.09
2023-04-12T00:57:59.922Z,99478.38
2023-04-12T01:00:27.361Z,99486.81
2023-04-12T01:02:54.933Z,99502.41
2023-04-12T01:05:23.973Z,99498.66
2023-04-12T01:08:12.039Z,99494.03
2023-04-12T01:11:14.826Z,99490.91
2023-04-12T01:13:56.414Z,99486.13
2023-04-12T01:16:51.263Z,99493.75
2023-04-12T01:19:34.190Z,99497.50
2023-04-12T01:22:32.746Z,99511.22
2023-04-12T01:25:39.597Z,99503.19
2023-04-12T01:28:12.237Z,99496.41
2023-04-12T01:30:41.290Z,99489.19
2023-04-12T01:33:12.438Z,99495.41
2023-04-12T01:35:40.808Z,99495.44
2023-04-12T01:38:09.912Z,99514.38
2023-04-12T01:40:40.704Z,99509.38
2023-04-12T01:43:12.668Z,99498.19
2023-04-12T01:45:40.681Z,99518.38
2023-04-12T01:48:12.621Z,99516.72
2023-04-12T01:51:00.667Z,99516.03
2023-04-12T01:53:54.720Z,99514.50
2023-04-12T01:56:24.647Z,99505.66
2023-04-12T01:58:56.015Z,99509.19
2023-04-12T02:01:24.019Z,99511.16
2023-04-12T02:03:52.544Z,99511.09
2023-04-12T02:06:23.420Z,99510.31
2023-04-12T02:09:02.183Z,99506.41
2023-04-12T02:11:30.073Z,99508.38
2023-04-12T02:13:57.407Z,99517.38
2023-04-12T02:16:24.975Z,99501.72
2023-04-12T02:18:52.231Z,99492.25
2023-04-12T02:21:19.839Z,99488.66
2023-04-12T02:23:47.115Z,99486.78
2023-04-12T02:26:14.467Z,99483.81
2023-04-12T02:28:41.671Z,99482.72
2023-04-12T02:31:12.104Z,99490.44
2023-04-12T02:33:41.177Z,99493.72
2023-04-12T02:36:11.498Z,99489.16
2023-04-12T02:38:39.742Z,99487.59
2023-04-12T02:41:08.272Z,99479.88
2023-04-12T02:43:36.231Z,99472.13
2023-04-12T02:46:08.810Z,99471.34
2023-04-12T02:48:46.225Z,99461.41
2023-04-12T02:51:13.850Z,99455.34
2023-04-12T02:53:43.460Z,99456.53
2023-04-12T02:56:19.104Z,99458.44
2023-04-12T02:58:49.669Z,99460.47
2023-04-12T03:01:26.044Z,99462.13
2023-04-12T03:04:11.986Z,99463.19
2023-04-12T03:06:53.756Z,99473.91
2023-04-12T03:09:42.639Z,99472.59
2023-04-12T03:12:10.000Z,99475.09
2023-04-12T03:14:43.779Z,99472.59
2023-04-12T03:17:11.599Z,99472.09
2023-04-12T03:19:39.385Z,99478.59
2023-04-12T03:22:06.861Z,99473.06
2023-04-12T03:24:37.817Z,99480.19
2023-04-12T03:27:06.922Z,99478.13
2023-04-12T03:29:35.748Z,99473.91
2023-04-12T03:32:03.900Z,99475.69
2023-04-12T03:34:32.595Z,99469.44
2023-04-12T03:37:05.435Z,99464.81
2023-04-12T03:39:41.937Z,99455.69
2023-04-12T03:42:21.638Z,99450.44
2023-04-12T03:44:53.977Z,99434.50
2023-04-12T03:47:22.753Z,99437.25
2023-04-12T03:50:06.096Z,99428.94
2023-04-12T03:52:37.993Z,99427.56
2023-04-12T03:55:08.418Z,99426.28
2023-04-12T03:57:36.702Z,99428.72
2023-04-12T04:00:08.578Z,99438.47
2023-04-12T04:03:15.905Z,99432.50
2023-04-12T04:05:49.135Z,99437.72
2023-04-12T04:08:19.134Z,99434.16
2023-04-12T04:10:51.201Z,99436.06
2023-04-12T04:13:19.774Z,99434.25
2023-04-12T04:15:51.927Z,99425.44
2023-04-12T04:18:19.208Z,99431.34
2023-04-12T04:20:47.908Z,99439.88
2023-04-12T04:23:15.411Z,99445.22
2023-04-12T04:25:42.912Z,99435.84
2023-04-12T04:28:16.063Z,99423.56
2023-04-12T04:30:46.093Z,99427.63
2023-04-12T04:33:15.997Z,99440.00
2023-04-12T04:35:43.839Z,99447.25
2023-04-12T04:38:26.842Z,99439.44
2023-04-12T04:41:02.874Z,99433.16
2023-04-12T04:43:46.735Z,99445.34
2023-04-12T04:46:14.591Z,99435.00
2023-04-12T04:48:41.988Z,99438.34
2023-04-12T04:51:09.332Z,99443.44
2023-04-12T04:53:36.646Z,99440.09
2023-04-12T04:56:05.025Z,99438.47
2023-04-12T04:58:35.742Z,99437.50
2023-04-12T05:01:03.482Z,99441.88
2023-04-12T05:03:34.009Z,99435.47
2023-04-12T05:06:03.446Z,99450.34
2023-04-12T05:08:32.299Z,99447.00
2023-04-12T05:10:59.469Z,99441.19
2023-04-12T05:13:29.577Z,99439.69
2023-04-12T05:15:56.880Z,99444.16
2023-04-12T05:18:24.117Z,99446.91
2023-04-12T05:20:51.404Z,99453.84
2023-04-12T05:23:18.721Z,99462.63
2023-04-12T05:25:48.055Z,99464.63
2023-04-12T05:28:17.338Z,99465.69
2023-04-12T05:30:45.339Z,99460.47
2023-04-12T05:33:16.030Z,99454.63
2023-04-12T05:35:46.681Z,99464.47
2023-04-12T05:38:13.922Z,99464.59
2023-04-12T05:40:44.034Z,99459.75
2023-04-12T05:43:12.969Z,99465.34
2023-04-12T05:45:41.757Z,99467.53
2023-04-12T05:48:10.072Z,99469.41
2023-04-12T05:50:37.928Z,99465.63
2023-04-12T05:53:05.210Z,99466.47
2023-04-12T05:55:35.341Z,99473.41
2023-04-12T05:58:03.956Z,99468.19
2023-04-12T06:00:31.872Z,99464.69
2023-04-12T06:02:59.100Z,99465.50
2023-04-12T06:05:26.397Z,99463.94
2023-04-12T06:07:53.656Z,99473.66
2023-04-12T06:10:21.207Z,99466.34
2023-04-12T06:12:51.606Z,99465.63
2023-04-12T06:15:20.799Z,99462.19
2023-04-12T06:17:51.977Z,99459.66
2023-04-12T06:20:19.311Z,99470.31
2023-04-12T06:22:46.600Z,99469.63
2023-04-12T06:25:16.830Z,99467.88
2023-04-12T06:27:46.435Z,99463.88
2023-04-12T06:30:16.475Z,99458.41
2023-04-12T06:32:44.024Z,99471.19
2023-04-12T06:35:11.736Z,99465.84
2023-04-12T06:37:39.187Z,99466.28
2023-04-12T06:40:08.095Z,99463.28
2023-04-12T06:42:35.285Z,99469.75
2023-04-12T06:45:02.623Z,99464.50
2023-04-12T06:47:32.626Z,99476.06
2023-04-12T06:49:59.812Z,99466.50
2023-04-12T06:52:27.351Z,99465.56
2023-04-12T06:54:56.323Z,99455.72
2023-04-12T06:57:23.676Z,99459.97
2023-04-12T06:59:51.361Z,99455.47
2023-04-12T07:02:18.842Z,99457.03
2023-04-12T07:04:46.260Z,99452.84
2023-04-12T07:07:13.602Z,99452.81
2023-04-12T07:09:40.812Z,99453.28
2023-04-12T07:12:08.043Z,99444.94
2023-04-12T07:14:35.197Z,99441.13
2023-04-12T07:17:02.409Z,99445.75
2023-04-12T07:19:31.167Z,99444.69
2023-04-12T07:21:58.547Z,99433.81
2023-04-12T07:24:25.737Z,99433.09
2023-04-12T07:26:56.279Z,99439.16
2023-04-12T07:29:23.670Z,99428.78
2023-04-12T07:31:50.884Z,99425.81
2023-04-12T07:34:18.353Z,99435.03
2023-04-12T07:36:45.804Z,99437.97
2023-04-12T07:39:13.114Z,99443.41
2023-04-12T07:41:42.195Z,99447.78
2023-04-12T07:44:09.485Z,99465.41
2023-04-12T07:46:36.651Z,99454.75
2023-04-12T07:49:03.817Z,99458.66
2023-04-12T07:51:31.152Z,99440.19
2023-04-12T07:53:58.568Z,99445.63
2023-04-12T07:56:26.233Z,99441.13
2023-04-12T07:58:53.360Z,99443.31
2023-04-12T08:01:20.580Z,99449.09
2023-04-12T08:03:48.266Z,99454.75
2023-04-12T08:06:15.887Z,99463.69
2023-04-12T08:08:43.158Z,99467.53
2023-04-12T08:11:10.441Z,99464.75
2023-04-12T08:13:37.694Z,99467.47
2023-04-12T08:16:06.912Z,99463.09
2023-04-12T08:18:34.096Z,99477.59
2023-04-12T08:21:01.269Z,99465.59
2023-04-12T08:23:28.581Z,99473.56
2023-04-12T08:26:03.531Z,99479.50
2023-04-12T08:28:31.451Z,99471.38
2023-04-12T08:30:59.610Z,99473.53
2023-04-12T08:33:27.267Z,99471.94
2023-04-12T08:35:55.173Z,99480.34
2023-04-12T08:38:37.209Z,99477.13
2023-04-12T08:41:08.939Z,99475.16
2023-04-12T08:43:37.903Z,99469.75
2023-04-12T08:46:07.503Z,99478.41
2023-04-12T08:48:36.121Z,99466.28
2023-04-12T08:51:04.263Z,99465.44
2023-04-12T08:53:33.627Z,99469.94
2023-04-12T08:56:01.019Z,99472.19
2023-04-12T08:58:29.448Z,99464.94
2023-04-12T09:00:56.931Z,99457.22
2023-04-12T09:03:24.399Z,99453.59
2023-04-12T09:05:51.793Z,99445.56
2023-04-12T09:08:18.952Z,99433.44
2023-04-12T09:10:46.978Z,99433.66
2023-04-12T09:13:14.677Z,99429.25
2023-04-12T09:15:51.250Z,99437.53
2023-04-12T09:18:18.975Z,99444.72
2023-04-12T09:20:46.439Z,99441.47
2023-04-12T09:23:26.319Z,99420.22
2023-04-12T09:25:53.815Z,99419.66
2023-04-12T09:28:26.809Z,99436.78
2023-04-12T09:31:00.148Z,99427.81
2023-04-12T09:33:39.497Z,99414.75
2023-04-12T09:36:13.326Z,99418.19
2023-04-12T09:38:42.915Z,99411.75
2023-04-12T09:41:27.216Z,99410.97
2023-04-12T09:43:54.822Z,99405.81
2023-04-12T09:46:22.861Z,99416.00
2023-04-12T09:48:55.602Z,99413.44
2023-04-12T09:51:34.155Z,99411.47
2023-04-12T09:54:04.752Z,99405.00
2023-04-12T09:56:36.572Z,99405.72
2023-04-12T09:59:07.062Z,99412.75
2023-04-12T10:01:41.175Z,99409.69
2023-04-12T10:04:09.898Z,99414.50
2023-04-12T10:06:38.996Z,99411.00
2023-04-12T10:09:08.561Z,99409.13
2023-04-12T10:11:37.450Z,99412.84
2023-04-12T10:14:06.974Z,99413.78
2023-04-12T10:16:35.081Z,99401.22
2023-04-12T10:19:04.044Z,99391.09
2023-04-12T10:21:31.865Z,99389.59
2023-04-12T10:23:59.558Z,99394.50
2023-04-12T10:26:27.710Z,99391.00
2023-04-12T10:29:32.695Z,99388.66
2023-04-12T10:32:22.275Z,99392.19
2023-04-12T10:35:00.708Z,99388.69
2023-04-12T10:38:05.639Z,99379.94
2023-04-12T10:40:33.860Z,99382.09
2023-04-12T10:43:28.679Z,99373.63
2023-04-12T10:45:56.281Z,99365.56
2023-04-12T10:48:51.825Z,99360.47
2023-04-12T10:51:25.641Z,99333.22
2023-04-12T10:54:17.052Z,99322.84
2023-04-12T10:56:46.870Z,99330.88
2023-04-12T10:59:34.166Z,99321.16
2023-04-12T11:02:12.959Z,99322.03
2023-04-12T11:05:10.917Z,99320.59
2023-04-12T11:08:00.337Z,99312.34
2023-04-12T11:11:02.245Z,99304.44
2023-04-12T11:13:38.985Z,99315.16
2023-04-12T11:16:07.795Z,99315.53
2023-04-12T11:18:38.113Z,99306.34
2023-04-12T11:21:06.592Z,99311.44
2023-04-12T11:23:36.208Z,99316.59
2023-04-12T11:26:04.604Z,99316.63
2023-04-12T11:28:33.903Z,99314.97
2023-04-12T11:31:03.934Z,99306.81
2023-04-12T11:33:37.484Z,99305.22
2023-04-12T11:36:14.565Z,99308.16
2023-04-12T11:38:42.218Z,99296.81
2023-04-12T11:41:10.012Z,99292.78
2023-04-12T11:43:38.651Z,99287.69
2023-04-12T11:46:06.423Z,99282.59
2023-04-12T11:48:33.927Z,99288.50
2023-04-12T11:51:10.880Z,99294.16
2023-04-12T11:53:39.558Z,99286.38
2023-04-12T11:56:10.255Z,99280.78
2023-04-12T11:58:37.606Z,99268.38
2023-04-12T12:01:05.483Z,99256.94
2023-04-12T12:03:32.843Z,99251.53
2023-04-12T12:06:00.787Z,99251.50
2023-04-12T12:08:28.252Z,99230.38
2023-04-12T12:11:06.510Z,99240.88
2023-04-12T12:14:08.226Z,99238.34
2023-04-12T12:16:35.884Z,99239.28
2023-04-12T12:19:06.198Z,99243.47
2023-04-12T12:21:33.336Z,99246.34
2023-04-12T12:24:00.688Z,99241.03
2023-04-12T12:26:28.635Z,99236.63
2023-04-12T12:28:57.958Z,99223.34
2023-04-12T12:31:28.359Z,99229.53
2023-04-12T12:34:05.877Z,99218.06
2023-04-12T12:36:38.560Z,99212.75
2023-04-12T12:39:12.748Z,99216.19
2023-04-12T12:41:40.466Z,99211.78
2023-04-12T12:44:08.159Z,99216.25
2023-04-12T12:49:06.271Z,99227.66
2023-04-12T12:51:33.591Z,99227.72
2023-04-12T12:54:01.138Z,99228.03
2023-04-12T12:56:28.380Z,99221.44
2023-04-12T12:58:55.991Z,99215.22
2023-04-12T13:01:23.356Z,99217.53
2023-04-12T13:03:50.971Z,99209.59
2023-04-12T13:06:18.352Z,99204.31
2023-04-12T13:08:46.597Z,99193.53
2023-04-12T13:11:14.069Z,99193.91
2023-04-12T13:13:41.937Z,99189.44
2023-04-12T13:16:09.467Z,99189.53
2023-04-12T13:18:36.806Z,99185.03
2023-04-12T13:21:04.182Z,99173.69
2023-04-12T13:23:32.393Z,99169.84
2023-04-12T13:25:59.496Z,99158.63
2023-04-12T13:28:26.608Z,99160.47
2023-04-12T13:30:53.775Z,99156.06
2023-04-12T13:33:22.175Z,99155.13
2023-04-12T13:35:49.808Z,99155.09
2023-04-12T13:38:16.964Z,99145.47
2023-04-12T13:40:44.162Z,99154.25
2023-04-12T13:43:11.502Z,99150.38
2023-04-12T13:45:38.807Z,99148.63
2023-04-12T13:48:06.337Z,99141.88
2023-04-12T13:50:33.497Z,99142.75
2023-04-12T13:53:01.441Z,99139.75
2023-04-12T13:55:28.643Z,99134.59
2023-04-12T13:57:55.795Z,99133.28
2023-04-12T14:00:23.700Z,99122.34
2023-04-12T14:02:50.935Z,99117.09
2023-04-12T14:05:18.222Z,99113.13
2023-04-12T14:07:46.261Z,99109.50
2023-04-12T14:10:13.397Z,99118.31
2023-04-12T14:12:40.654Z,99111.53
2023-04-12T14:15:08.846Z,99105.75
2023-04-12T14:17:35.970Z,99102.41
2023-04-12T14:20:06.808Z,99093.59
2023-04-12T14:22:33.960Z,99091.63
2023-04-12T14:25:01.138Z,99083.03
2023-04-12T14:27:28.369Z,99084.09
2023-04-12T14:29:56.630Z,99075.31
2023-04-12T14:32:23.937Z,99072.63
2023-04-12T14:34:51.635Z,99074.34
2023-04-12T14:37:18.742Z,99074.34
2023-04-12T14:39:45.874Z,99071.78
2023-04-12T14:42:13.069Z,99068.09
2023-04-12T14:44:40.191Z,99072.03
2023-04-12T14:47:07.404Z,99072.47
2023-04-12T14:49:34.749Z,99078.63
2023-04-12T14:52:02.136Z,99079.16
2023-04-12T14:54:29.294Z,99080.81
2023-04-12T14:56:56.837Z,99077.19
2023-04-12T14:59:24.893Z,99084.72
2023-04-12T15:01:52.624Z,99082.84
2023-04-12T15:04:20.509Z,99082.63
2023-04-12T15:06:47.796Z,99078.50
2023-04-12T15:09:17.762Z,99077.88
2023-04-12T15:11:49.340Z,99072.34
2023-04-12T15:14:18.085Z,99082.38
2023-04-12T15:16:49.221Z,99076.03
2023-04-12T15:19:21.485Z,99074.59
2023-04-12T15:21:55.187Z,99077.31
2023-04-12T15:24:23.979Z,99075.19
2023-04-12T15:26:52.838Z,99086.63
2023-04-12T15:29:22.146Z,99079.75
2023-04-12T15:31:49.523Z,99068.34
2023-04-12T15:34:17.376Z,99072.31
2023-04-12T15:36:45.868Z,99068.94
2023-04-12T15:39:14.737Z,99058.47
2023-04-12T15:41:42.826Z,99055.53
2023-04-12T15:44:14.257Z,99057.69
2023-04-12T15:46:42.779Z,99056.78
2023-04-12T15:49:11.301Z,99059.06
2023-04-12T15:51:38.891Z,99058.22
2023-04-12T15:54:06.513Z,99056.00
2023-04-12T15:56:34.446Z,99056.69
2023-04-12T15:59:01.786Z,99060.78
2023-04-12T16:01:29.339Z,99062.59
2023-04-12T16:03:56.786Z,99055.09
2023-04-12T16:06:25.370Z,99058.56
2023-04-12T16:08:54.712Z,99054.31
2023-04-12T16:11:23.780Z,99060.59
2023-04-12T16:13:54.046Z,99060.38
2023-04-12T16:16:24.478Z,99054.47
2023-04-12T16:18:52.995Z,99054.78
2023-04-12T16:21:23.219Z,99055.09
2023-04-12T16:23:51.221Z,99048.50
2023-04-12T16:26:21.512Z,99051.84
2023-04-12T16:28:51.653Z,99048.75
2023-04-12T16:31:20.975Z,99053.53
2023-04-12T16:33:51.983Z,99055.84
2023-04-12T16:36:22.119Z,99064.03
2023-04-12T16:38:55.219Z,99064.50
2023-04-12T16:41:23.136Z,99064.59
2023-04-12T16:43:53.539Z,99053.38
2023-04-12T16:46:22.852Z,99054.03
2023-04-12T16:48:50.165Z,99053.78
2023-04-12T16:51:17.515Z,99053.72
2023-04-12T16:53:44.648Z,99047.13
2023-04-12T16:56:11.778Z,99048.06
2023-04-12T16:58:38.932Z,99046.88
2023-04-12T17:01:07.858Z,99046.94
2023-04-12T17:03:35.203Z,99042.50
2023-04-12T17:06:02.612Z,99045.78
2023-04-12T17:08:29.724Z,99040.41
2023-04-12T17:10:56.921Z,99040.53
2023-04-12T17:13:24.190Z,99036.09
2023-04-12T17:15:51.718Z,99036.94
2023-04-12T17:18:19.007Z,99039.91
2023-04-12T17:20:46.314Z,99045.97
2023-04-12T17:23:13.591Z,99042.81
2023-04-12T17:25:41.784Z,99032.16
2023-04-12T17:28:09.433Z,99026.00
2023-04-12T17:30:37.027Z,99025.22
2023-04-12T17:33:05.065Z,99020.00
2023-04-12T17:35:32.449Z,99019.06
2023-04-12T17:37:59.636Z,99011.81
2023-04-12T17:40:27.080Z,99015.13
2023-04-12T17:42:54.293Z,99005.00
2023-04-12T17:45:27.998Z,99003.13
2023-04-12T17:47:55.241Z,98997.97
2023-04-12T17:50:22.528Z,99010.25
2023-04-12T17:52:49.695Z,99021.31
2023-04-12T17:55:19.781Z,99029.09
2023-04-12T17:57:46.911Z,99026.09
2023-04-12T18:00:15.855Z,99032.38
2023-04-12T18:02:46.798Z,99029.97
2023-04-12T18:05:14.182Z,99031.97
2023-04-12T18:07:42.298Z,99029.22
2023-04-12T18:10:13.025Z,99026.44
2023-04-12T18:12:40.786Z,99017.06
2023-04-12T18:15:09.244Z,99019.47
2023-04-12T18:17:36.855Z,99019.47
2023-04-12T18:20:09.750Z,99024.94
2023-04-12T18:22:40.351Z,99027.34
2023-04-12T18:25:08.892Z,99029.03
2023-04-12T18:27:36.396Z,99034.47
2023-04-12T18:30:05.079Z,99032.50
2023-04-12T18:32:32.462Z,99028.00
2023-04-12T18:35:00.339Z,99029.66
2023-04-12T18:37:27.891Z,99027.03
2023-04-12T18:39:55.457Z,99024.50
2023-04-12T18:42:22.709Z,99026.91
2023-04-12T18:44:52.154Z,99025.84
2023-04-12T18:47:21.274Z,99032.13
2023-04-12T18:49:49.334Z,99031.03
2023-04-12T18:52:16.634Z,99023.69
2023-04-12T18:54:43.776Z,99020.81
2023-04-12T18:57:11.492Z,99031.16
2023-04-12T18:59:38.752Z,99039.63
2023-04-12T19:02:06.790Z,99034.22
2023-04-12T19:04:34.065Z,99026.28
2023-04-12T19:07:01.192Z,99016.69
2023-04-12T19:09:28.991Z,99017.63
2023-04-12T19:11:56.910Z,99015.03
2023-04-12T19:14:25.291Z,99008.69
2023-04-12T19:16:52.981Z,99004.22
2023-04-12T19:19:20.157Z,99018.19
2023-04-12T19:21:47.325Z,99012.25
2023-04-12T19:24:14.517Z,99017.31
2023-04-12T19:26:46.989Z,99012.00
2023-04-12T19:29:18.713Z,99001.34
2023-04-12T19:31:47.596Z,99003.66
2023-04-12T19:34:17.787Z,99007.19
2023-04-12T19:36:45.780Z,99006.31
2023-04-12T19:39:13.122Z,98991.59
2023-04-12T19:41:40.588Z,98992.34
2023-04-12T19:44:09.104Z,98994.16
2023-04-12T19:46:38.753Z,98995.91
2023-04-12T19:49:06.241Z,99005.53
2023-04-12T19:51:33.448Z,99007.44
2023-04-12T19:54:00.853Z,98991.03
2023-04-12T19:56:30.623Z,98993.22
2023-04-12T19:58:58.144Z,99006.09
2023-04-12T20:01:26.844Z,99004.91
2023-04-12T20:03:54.158Z,99008.63
2023-04-12T20:06:23.225Z,99004.25
2023-04-12T20:08:51.177Z,98994.13
2023-04-12T20:11:18.320Z,98997.34
2023-04-12T20:13:45.481Z,98989.28
2023-04-12T20:16:16.724Z,98984.91
2023-04-12T20:18:43.898Z,98983.88
2023-04-12T20:21:11.123Z,98985.47
2023-04-12T20:23:38.272Z,98973.63
2023-04-12T20:26:07.341Z,98976.19
2023-04-12T20:28:34.529Z,98976.00
2023-04-12T20:31:01.831Z,98970.09
2023-04-12T20:33:30.102Z,98976.69
2023-04-12T20:35:57.472Z,98971.53
2023-04-12T20:38:26.353Z,98972.28
2023-04-12T20:40:54.689Z,98959.00
2023-04-12T20:43:21.828Z,98954.88
2023-04-12T20:45:50.616Z,98949.63
2023-04-12T20:48:20.317Z,98951.84
2023-04-12T20:50:47.980Z,98950.22
2023-04-12T20:53:16.150Z,98948.22
2023-04-12T20:55:45.428Z,98942.72
2023-04-12T20:58:12.946Z,98942.50
2023-04-12T21:00:40.389Z,98942.31
2023-04-12T21:03:08.182Z,98936.03
2023-04-12T21:05:35.697Z,98939.53
2023-04-12T21:08:02.874Z,98942.06
2023-04-12T21:10:30.010Z,98940.28
2023-04-12T21:13:02.687Z,98937.41
2023-04-12T21:15:30.140Z,98928.78
2023-04-12T21:17:57.341Z,98933.97
2023-04-12T21:20:25.385Z,98926.09
2023-04-12T21:22:52.565Z,98918.97
2023-04-12T21:25:21.176Z,98918.97
2023-04-12T21:27:49.694Z,98905.50
2023-04-12T21:30:17.326Z,98908.69
2023-04-12T21:32:44.939Z,98897.41
2023-04-12T21:35:13.664Z,98892.28
2023-04-12T21:37:40.930Z,98895.22
2023-04-12T21:40:12.554Z,98896.03
2023-04-12T21:42:41.157Z,98902.13
2023-04-12T21:45:09.719Z,98888.78
2023-04-12T21:47:41.631Z,98891.03
2023-04-12T21:50:10.701Z,98891.63
2023-04-12T21:52:40.364Z,98878.63
2023-04-12T21:55:07.926Z,98875.31
2023-04-12T21:57:35.890Z,98865.53
2023-04-12T22:00:09.820Z,98864.66
2023-04-12T22:02:40.662Z,98878.63
2023-04-12T22:05:08.722Z,98890.50
2023-04-12T22:07:40.765Z,98888.00
2023-04-12T22:10:10.015Z,98886.59
2023-04-12T22:12:37.868Z,98890.06
2023-04-12T22:15:06.508Z,98888.13
2023-04-12T22:17:34.211Z,98881.47
2023-04-12T22:20:01.592Z,98893.59
2023-04-12T22:22:29.194Z,98890.06
2023-04-12T22:24:56.463Z,98895.00
2023-04-12T22:27:26.470Z,98892.44
2023-04-12T22:29:53.878Z,98884.59
2023-04-12T22:32:21.156Z,98891.66
2023-04-12T22:34:57.771Z,98888.16
2023-04-12T22:37:36.031Z,98888.16
2023-04-12T22:40:06.254Z,98892.34
2023-04-12T22:42:33.442Z,98880.06
2023-04-12T22:45:00.607Z,98887.88
2023-04-12T22:47:28.658Z,98885.41
2023-04-12T22:50:01.357Z,98884.50
2023-04-12T22:52:31.843Z,98882.69
2023-04-12T22:54:58.988Z,98874.03
2023-04-12T22:57:26.147Z,98868.28
2023-04-12T22:59:53.635Z,98873.34
2023-04-12T23:02:23.213Z,98868.00
2023-04-12T23:04:51.740Z,98864.28
2023-04-12T23:07:19.129Z,98861.28
2023-04-12T23:09:46.335Z,98853.41
2023-04-12T23:12:13.644Z,98862.00
2023-04-12T23:14:40.811Z,98863.13
2023-04-12T23:17:08.000Z,98864.28
2023-04-12T23:19:35.454Z,98870.97
2023-04-12T23:22:03.365Z,98868.50
2023-04-12T23:24:30.938Z,98870.88
2023-04-12T23:26:58.819Z,98867.63
2023-04-12T23:29:26.128Z,98863.78
2023-04-12T23:31:53.467Z,98852.69
2023-04-12T23:34:22.066Z,98855.19
2023-04-12T23:36:52.196Z,98857.16
2023-04-12T23:39:20.276Z,98842.97
2023-04-12T23:41:47.414Z,98854.94
2023-04-12T23:44:14.632Z,98858.59
2023-04-12T23:46:42.570Z,98849.75
2023-04-12T23:49:09.848Z,98848.91
2023-04-12T23:51:37.044Z,98839.09
2023-04-12T23:54:04.469Z,98839.00
2023-04-12T23:56:31.640Z,98844.19
2023-04-12T23:58:58.888Z,98837.84
